createdAt,value
2018-08-24T00:00:18.383Z,15.34
2018-08-24T00:02:47.045Z,15.23
2018-08-24T00:05:15.719Z,15.22
2018-08-24T00:07:44.402Z,15.17
2018-08-24T00:10:13.039Z,15.12
2018-08-24T00:12:41.698Z,15.16
2018-08-24T00:15:10.328Z,15.26
2018-08-24T00:17:39.028Z,15.31
2018-08-24T00:20:07.695Z,15.32
2018-08-24T00:22:36.371Z,15.31
2018-08-24T00:25:05.135Z,15.31
2018-08-24T00:27:33.781Z,15.28
2018-08-24T00:30:02.423Z,15.25
2018-08-24T00:32:31.095Z,15.23
2018-08-24T00:34:59.755Z,15.22
2018-08-24T00:37:28.409Z,15.17
2018-08-24T00:39:57.063Z,15.14
2018-08-24T00:42:25.725Z,15.10
2018-08-24T00:44:54.376Z,15.08
2018-08-24T00:47:23.036Z,15.08
2018-08-24T00:49:51.678Z,15.09
2018-08-24T00:52:20.580Z,15.11
2018-08-24T00:54:49.263Z,15.15
2018-08-24T00:57:17.918Z,15.16
2018-08-24T00:59:46.588Z,15.16
2018-08-24T01:02:15.265Z,15.08
2018-08-24T01:04:43.914Z,14.95
2018-08-24T01:07:13.827Z,14.90
2018-08-24T01:09:42.934Z,14.88
2018-08-24T01:12:13.706Z,14.86
2018-08-24T01:14:43.712Z,14.79
2018-08-24T01:17:17.571Z,14.75
2018-08-24T01:19:46.733Z,14.73
2018-08-24T01:22:15.762Z,14.66
2018-08-24T01:24:44.415Z,14.59
2018-08-24T01:27:13.038Z,14.57
2018-08-24T01:29:42.925Z,14.61
2018-08-24T01:32:11.606Z,14.70
2018-08-24T01:34:40.258Z,14.71
2018-08-24T01:37:08.902Z,14.78
2018-08-24T01:39:37.562Z,14.80
2018-08-24T01:42:06.228Z,14.75
2018-08-24T01:44:34.876Z,14.73
2018-08-24T01:47:03.548Z,14.69
2018-08-24T01:49:32.200Z,14.63
2018-08-24T01:52:00.836Z,14.61
2018-08-24T01:54:29.487Z,14.58
2018-08-24T01:56:58.177Z,14.58
2018-08-24T01:59:26.813Z,14.58
2018-08-24T02:01:55.452Z,14.60
2018-08-24T02:04:24.104Z,14.60
2018-08-24T02:06:52.737Z,14.64
2018-08-24T02:09:23.033Z,14.72
2018-08-24T02:11:52.088Z,14.80
2018-08-24T02:14:26.209Z,14.97
2018-08-24T02:16:54.811Z,15.16
2018-08-24T02:19:28.708Z,15.36
2018-08-24T02:22:02.590Z,15.47
2018-08-24T02:24:31.263Z,15.55
2018-08-24T02:26:59.896Z,15.63
2018-08-24T02:29:28.556Z,15.81
2018-08-24T02:31:57.207Z,15.96
2018-08-24T02:34:25.863Z,16.03
2018-08-24T02:36:54.498Z,16.08
2018-08-24T02:39:23.168Z,16.09
2018-08-24T02:41:51.825Z,16.11
2018-08-24T02:44:20.484Z,16.17
2018-08-24T02:46:49.125Z,16.23
2018-08-24T02:49:17.794Z,16.28
2018-08-24T02:51:46.460Z,16.34
2018-08-24T02:54:15.124Z,16.37
2018-08-24T02:56:43.885Z,16.42
2018-08-24T02:59:12.595Z,16.44
2018-08-24T03:01:41.234Z,16.46
2018-08-24T03:04:09.908Z,16.45
2018-08-24T03:06:38.543Z,16.44
2018-08-24T03:09:09.827Z,16.42
2018-08-24T03:11:38.470Z,16.40
2018-08-24T03:14:07.178Z,16.35
2018-08-24T03:16:35.877Z,16.27
2018-08-24T03:19:04.588Z,16.22
2018-08-24T03:21:33.245Z,16.19
2018-08-24T03:24:01.905Z,16.18
2018-08-24T03:26:30.550Z,16.20
2018-08-24T03:28:59.221Z,16.23
2018-08-24T03:31:27.857Z,16.24
2018-08-24T03:33:56.496Z,16.23
2018-08-24T03:36:25.151Z,16.18
2018-08-24T03:38:53.782Z,16.15
2018-08-24T03:41:22.440Z,16.14
2018-08-24T03:43:51.074Z,16.15
2018-08-24T03:46:19.731Z,16.18
2018-08-24T03:48:48.389Z,16.15
2018-08-24T03:51:17.052Z,16.06
2018-08-24T03:53:45.693Z,15.95
2018-08-24T03:56:14.361Z,15.87
2018-08-24T03:58:43.007Z,15.85
2018-08-24T04:01:11.688Z,15.88
2018-08-24T04:03:40.343Z,15.95
2018-08-24T04:06:09.001Z,16.05
2018-08-24T04:08:37.654Z,16.12
2018-08-24T04:11:06.483Z,16.13
2018-08-24T04:13:35.128Z,16.16
2018-08-24T04:16:03.799Z,16.20
2018-08-24T04:18:32.458Z,16.28
2018-08-24T04:21:01.150Z,16.31
2018-08-24T04:23:29.784Z,16.34
2018-08-24T04:25:58.482Z,16.38
2018-08-24T04:28:27.127Z,16.44
2018-08-24T04:30:55.795Z,16.50
2018-08-24T04:33:24.436Z,16.57
2018-08-24T04:35:53.090Z,16.64
2018-08-24T04:38:21.731Z,16.70
2018-08-24T04:40:50.392Z,16.77
2018-08-24T04:43:19.036Z,16.85
2018-08-24T04:45:47.692Z,16.93
2018-08-24T04:48:16.330Z,17.00
2018-08-24T04:50:44.999Z,17.05
2018-08-24T04:53:13.680Z,17.09
2018-08-24T04:55:42.347Z,17.11
2018-08-24T04:58:11.006Z,17.15
2018-08-24T05:00:39.676Z,17.18
2018-08-24T05:03:08.371Z,17.23
2018-08-24T05:05:37.074Z,17.28
2018-08-24T05:08:05.699Z,17.33
2018-08-24T05:10:34.298Z,17.38
2018-08-24T05:13:02.932Z,17.44
2018-08-24T05:15:31.600Z,17.50
2018-08-24T05:18:00.245Z,17.62
2018-08-24T05:20:28.920Z,17.73
2018-08-24T05:22:57.460Z,17.81
2018-08-24T05:25:26.007Z,17.88
2018-08-24T05:27:54.661Z,17.90
2018-08-24T05:30:23.343Z,17.87
2018-08-24T05:32:51.978Z,17.88
2018-08-24T05:35:20.528Z,17.92
2018-08-24T05:37:49.041Z,17.96
2018-08-24T05:40:17.725Z,18.01
2018-08-24T05:42:46.387Z,18.11
2018-08-24T05:45:15.033Z,18.28
2018-08-24T05:47:43.708Z,18.49
2018-08-24T05:50:12.355Z,18.81
2018-08-24T05:52:41.009Z,19.02
2018-08-24T05:55:09.671Z,19.16
2018-08-24T05:57:38.343Z,19.29
2018-08-24T06:00:07.096Z,19.30
2018-08-24T06:02:35.817Z,19.19
2018-08-24T06:05:04.480Z,19.19
2018-08-24T06:07:33.146Z,19.15
2018-08-24T06:10:01.787Z,19.09
2018-08-24T06:12:30.456Z,19.16
2018-08-24T06:14:59.120Z,19.34
2018-08-24T06:17:32.940Z,19.50
2018-08-24T06:20:01.593Z,19.15
2018-08-24T06:22:30.292Z,18.71
2018-08-24T06:24:58.940Z,18.42
2018-08-24T06:27:27.636Z,18.34
2018-08-24T06:29:56.285Z,18.27
2018-08-24T06:32:25.023Z,18.17
2018-08-24T06:34:53.733Z,18.13
2018-08-24T06:37:22.439Z,17.99
2018-08-24T06:39:51.095Z,17.94
2018-08-24T06:42:19.751Z,17.82
2018-08-24T06:44:48.451Z,17.69
2018-08-24T06:47:17.171Z,17.55
2018-08-24T06:49:45.789Z,17.48
2018-08-24T06:52:14.463Z,17.44
2018-08-24T06:54:46.807Z,17.42
2018-08-24T06:57:15.587Z,17.48
2018-08-24T06:59:44.345Z,17.81
2018-08-24T07:02:13.044Z,18.03
2018-08-24T07:04:41.696Z,18.25
2018-08-24T07:07:10.381Z,18.42
2018-08-24T07:09:39.769Z,18.51
2018-08-24T07:12:10.704Z,18.45
2018-08-24T07:14:43.433Z,18.56
2018-08-24T07:17:12.103Z,18.74
2018-08-24T07:19:40.749Z,18.81
2018-08-24T07:22:09.440Z,19.00
2018-08-24T07:24:38.083Z,19.18
2018-08-24T07:27:06.752Z,19.43
2018-08-24T07:29:35.387Z,19.64
2018-08-24T07:32:04.322Z,19.64
2018-08-24T07:34:32.969Z,19.25
2018-08-24T07:37:01.646Z,18.96
2018-08-24T07:39:30.303Z,19.10
2018-08-24T07:41:59.074Z,19.28
2018-08-24T07:44:27.657Z,19.69
2018-08-24T07:46:56.340Z,20.10
2018-08-24T07:49:24.971Z,19.96
2018-08-24T07:51:53.656Z,19.80
2018-08-24T07:54:22.299Z,19.66
2018-08-24T07:56:50.953Z,19.81
2018-08-24T07:59:19.719Z,20.15
2018-08-24T08:01:48.401Z,20.47
2018-08-24T08:04:17.078Z,20.52
2018-08-24T08:06:45.746Z,20.34
2018-08-24T08:09:14.414Z,20.25
2018-08-24T08:11:43.055Z,20.22
2018-08-24T08:14:11.721Z,20.03
2018-08-24T08:16:40.374Z,20.07
2018-08-24T08:19:09.040Z,20.03
2018-08-24T08:21:37.705Z,19.92
2018-08-24T08:24:06.532Z,19.84
2018-08-24T08:26:35.198Z,19.61
2018-08-24T08:29:03.978Z,19.92
2018-08-24T08:31:32.615Z,20.35
2018-08-24T08:34:01.538Z,20.76
2018-08-24T08:36:30.174Z,20.82
2018-08-24T08:38:58.907Z,20.97
2018-08-24T08:41:27.551Z,21.11
2018-08-24T08:43:56.204Z,20.74
2018-08-24T08:46:24.846Z,20.56
2018-08-24T08:48:53.501Z,20.24
2018-08-24T08:51:22.192Z,20.05
2018-08-24T08:53:50.866Z,20.30
2018-08-24T08:56:19.578Z,20.58
2018-08-24T08:58:48.283Z,20.71
2018-08-24T09:01:16.912Z,20.65
2018-08-24T09:03:45.581Z,20.63
2018-08-24T09:06:14.347Z,20.85
2018-08-24T09:08:42.973Z,21.00
2018-08-24T09:11:11.618Z,21.24
2018-08-24T09:13:40.280Z,20.92
2018-08-24T09:16:08.922Z,21.04
2018-08-24T09:18:42.819Z,21.16
2018-08-24T09:21:16.756Z,21.25
2018-08-24T09:23:50.647Z,21.40
2018-08-24T09:27:23.035Z,21.44
2018-08-24T09:29:51.718Z,21.70
2018-08-24T09:32:20.479Z,21.67
2018-08-24T09:34:49.160Z,21.64
2018-08-24T09:37:23.018Z,21.47
2018-08-24T09:39:51.680Z,21.14
2018-08-24T09:42:20.328Z,20.87
2018-08-24T09:44:48.995Z,20.91
2018-08-24T09:47:22.903Z,20.97
2018-08-24T09:49:51.576Z,21.12
2018-08-24T09:52:25.268Z,20.88
2018-08-24T09:54:53.938Z,20.74
2018-08-24T09:57:22.588Z,20.77
2018-08-24T09:59:51.253Z,20.69
2018-08-24T10:02:24.880Z,20.55
2018-08-24T10:04:58.828Z,20.36
2018-08-24T10:07:32.652Z,20.23
2018-08-24T10:10:01.935Z,20.19
2018-08-24T10:12:35.602Z,20.31
2018-08-24T10:15:05.665Z,20.47
2018-08-24T10:17:34.306Z,20.54
2018-08-24T10:20:03.011Z,20.40
2018-08-24T10:22:32.316Z,20.36
2018-08-24T10:25:01.039Z,20.30
2018-08-24T10:27:29.672Z,20.19
2018-08-24T10:29:58.321Z,20.21
2018-08-24T10:32:26.935Z,20.06
2018-08-24T10:34:55.582Z,19.99
2018-08-24T10:37:24.199Z,19.91
2018-08-24T10:39:52.864Z,19.90
2018-08-24T10:42:21.485Z,19.78
2018-08-24T10:44:50.140Z,19.68
2018-08-24T10:47:18.828Z,19.65
2018-08-24T10:49:47.496Z,19.79
2018-08-24T10:52:16.132Z,20.06
2018-08-24T10:54:44.788Z,20.41
2018-08-24T10:57:13.448Z,20.70
2018-08-24T10:59:42.135Z,20.74
2018-08-24T11:02:10.884Z,20.75
2018-08-24T11:04:39.464Z,20.97
2018-08-24T11:07:08.150Z,21.20
2018-08-24T11:09:36.879Z,21.32
2018-08-24T11:12:05.543Z,21.26
2018-08-24T11:14:34.173Z,21.29
2018-08-24T11:17:02.857Z,21.11
2018-08-24T11:19:31.500Z,21.27
2018-08-24T11:22:00.164Z,21.28
2018-08-24T11:24:28.789Z,21.11
2018-08-24T11:26:57.516Z,20.98
2018-08-24T11:29:26.265Z,21.11
2018-08-24T11:31:54.819Z,21.24
2018-08-24T11:34:23.451Z,21.25
2018-08-24T11:36:52.090Z,21.18
2018-08-24T11:39:20.707Z,21.06
2018-08-24T11:41:49.420Z,21.03
2018-08-24T11:44:18.026Z,21.14
2018-08-24T11:46:46.676Z,21.41
2018-08-24T11:49:15.302Z,21.54
2018-08-24T11:51:43.951Z,21.60
2018-08-24T11:54:12.668Z,21.59
2018-08-24T11:56:41.326Z,21.52
2018-08-24T11:59:09.958Z,21.27
2018-08-24T12:01:38.627Z,21.06
2018-08-24T12:04:07.242Z,20.88
2018-08-24T12:06:35.893Z,20.86
2018-08-24T12:09:06.372Z,20.76
2018-08-24T12:11:35.029Z,20.62
2018-08-24T12:14:03.793Z,20.65
2018-08-24T12:16:32.480Z,20.89
2018-08-24T12:19:01.135Z,21.20
2018-08-24T12:21:30.692Z,21.36
2018-08-24T12:23:59.334Z,21.20
2018-08-24T12:26:27.988Z,20.95
2018-08-24T12:28:56.634Z,20.84
2018-08-24T12:31:25.271Z,20.71
2018-08-24T12:33:53.925Z,20.53
2018-08-24T12:36:22.572Z,20.44
2018-08-24T12:38:51.205Z,20.40
2018-08-24T12:41:19.937Z,20.17
2018-08-24T12:43:48.539Z,20.13
2018-08-24T12:46:17.246Z,20.12
2018-08-24T12:48:45.864Z,20.15
2018-08-24T12:51:14.518Z,20.24
2018-08-24T12:53:43.149Z,20.45
2018-08-24T12:56:17.371Z,20.79
2018-08-24T12:58:46.026Z,21.19
2018-08-24T13:01:14.677Z,21.55
2018-08-24T13:03:43.592Z,21.81
2018-08-24T13:06:12.557Z,22.04
2018-08-24T13:08:41.713Z,22.43
2018-08-24T13:11:10.433Z,22.74
2018-08-24T13:13:39.100Z,22.61
2018-08-24T13:16:07.893Z,22.54
2018-08-24T13:18:36.592Z,22.84
2018-08-24T13:21:05.607Z,22.95
2018-08-24T13:23:34.470Z,22.82
2018-08-24T13:26:03.107Z,22.53
2018-08-24T13:28:31.748Z,22.36
2018-08-24T13:31:00.425Z,22.30
2018-08-24T13:33:29.064Z,22.29
2018-08-24T13:35:57.711Z,22.36
2018-08-24T13:38:26.353Z,22.97
2018-08-24T13:40:54.995Z,23.30
2018-08-24T13:43:23.648Z,23.45
2018-08-24T13:45:52.277Z,22.89
2018-08-24T13:48:20.925Z,22.59
2018-08-24T13:50:49.717Z,22.85
2018-08-24T13:53:18.443Z,22.76
2018-08-24T13:55:47.326Z,23.05
2018-08-24T13:58:16.021Z,22.98
2018-08-24T14:00:44.684Z,22.82
2018-08-24T14:03:13.367Z,23.03
2018-08-24T14:05:41.998Z,23.14
2018-08-24T14:08:10.645Z,23.02
2018-08-24T14:10:39.279Z,23.19
2018-08-24T14:13:07.966Z,23.20
2018-08-24T14:15:36.557Z,23.46
2018-08-24T14:18:05.212Z,23.65
2018-08-24T14:20:33.844Z,23.29
2018-08-24T14:23:02.567Z,23.34
2018-08-24T14:25:31.253Z,23.12
2018-08-24T14:27:59.872Z,23.21
2018-08-24T14:30:28.510Z,23.48
2018-08-24T14:32:57.171Z,23.32
2018-08-24T14:35:25.791Z,22.84
2018-08-24T14:37:54.428Z,22.74
2018-08-24T14:40:23.050Z,22.81
2018-08-24T14:42:51.703Z,22.20
2018-08-24T14:45:20.342Z,21.62
2018-08-24T14:47:48.993Z,21.28
2018-08-24T14:50:17.634Z,21.38
2018-08-24T14:52:46.276Z,21.34
2018-08-24T14:55:14.917Z,21.25
2018-08-24T14:57:43.580Z,21.42
2018-08-24T15:00:12.210Z,21.96
2018-08-24T15:02:40.864Z,22.40
2018-08-24T15:05:11.384Z,22.57
2018-08-24T15:07:40.159Z,22.38
2018-08-24T15:10:09.389Z,22.07
2018-08-24T15:12:38.149Z,21.89
2018-08-24T15:15:07.150Z,21.75
2018-08-24T15:17:35.824Z,21.35
2018-08-24T15:20:05.020Z,21.35
2018-08-24T15:22:34.196Z,21.56
2018-08-24T15:25:02.825Z,21.51
2018-08-24T15:27:31.489Z,21.45
2018-08-24T15:30:00.144Z,21.20
2018-08-24T15:32:28.809Z,21.00
2018-08-24T15:34:57.468Z,20.85
2018-08-24T15:37:26.115Z,20.94
2018-08-24T15:39:54.776Z,20.75
2018-08-24T15:42:23.408Z,20.77
2018-08-24T15:44:52.056Z,20.62
2018-08-24T15:47:20.693Z,20.45
2018-08-24T15:49:49.359Z,20.39
2018-08-24T15:52:18.005Z,20.24
2018-08-24T15:54:46.783Z,19.96
2018-08-24T15:57:15.365Z,19.78
2018-08-24T15:59:44.015Z,19.79
2018-08-24T16:02:12.635Z,19.69
2018-08-24T16:04:41.293Z,19.62
2018-08-24T16:07:09.951Z,19.58
2018-08-24T16:09:40.128Z,19.35
2018-08-24T16:12:08.867Z,19.14
2018-08-24T16:14:37.505Z,19.10
2018-08-24T16:17:06.156Z,19.03
2018-08-24T16:19:34.825Z,19.16
2018-08-24T16:22:03.523Z,19.35
2018-08-24T16:24:32.216Z,19.23
2018-08-24T16:27:00.888Z,19.25
2018-08-24T16:29:29.563Z,19.32
2018-08-24T16:31:58.273Z,19.30
2018-08-24T16:34:26.993Z,19.25
2018-08-24T16:36:55.677Z,19.16
2018-08-24T16:39:24.351Z,19.16
2018-08-24T16:41:52.992Z,19.13
2018-08-24T16:44:21.667Z,19.02
2018-08-24T16:46:53.767Z,18.96
2018-08-24T16:49:22.430Z,18.87
2018-08-24T16:51:51.079Z,18.78
2018-08-24T16:54:19.748Z,18.76
2018-08-24T16:56:48.398Z,18.68
2018-08-24T16:59:17.079Z,18.58
2018-08-24T17:01:45.738Z,18.55
2018-08-24T17:04:14.393Z,18.40
2018-08-24T17:06:43.065Z,18.35
2018-08-24T17:09:13.104Z,18.26
2018-08-24T17:11:41.779Z,18.25
2018-08-24T17:14:10.424Z,18.24
2018-08-24T17:16:39.084Z,18.16
2018-08-24T17:19:07.727Z,18.12
2018-08-24T17:21:36.401Z,18.03
2018-08-24T17:24:05.052Z,17.97
2018-08-24T17:26:33.734Z,17.93
2018-08-24T17:29:02.387Z,17.87
2018-08-24T17:31:31.064Z,17.81
2018-08-24T17:33:59.697Z,17.76
2018-08-24T17:36:28.359Z,17.69
2018-08-24T17:38:56.983Z,17.65
2018-08-24T17:41:25.636Z,17.57
2018-08-24T17:43:54.287Z,17.48
2018-08-24T17:46:22.940Z,17.45
2018-08-24T17:48:51.567Z,17.42
2018-08-24T17:51:20.238Z,17.37
2018-08-24T17:53:48.871Z,17.28
2018-08-24T17:56:17.522Z,17.18
2018-08-24T17:58:46.155Z,17.08
2018-08-24T18:01:14.810Z,16.99
2018-08-24T18:03:43.460Z,16.92
2018-08-24T18:06:12.082Z,16.89
2018-08-24T18:08:40.770Z,16.85
2018-08-24T18:11:09.387Z,16.81
2018-08-24T18:13:38.032Z,16.76
2018-08-24T18:16:06.666Z,16.69
2018-08-24T18:18:35.327Z,16.63
2018-08-24T18:21:04.006Z,16.55
2018-08-24T18:23:32.650Z,16.50
2018-08-24T18:26:01.271Z,16.46
2018-08-24T18:28:29.915Z,16.39
2018-08-24T18:30:58.547Z,16.36
2018-08-24T18:33:27.192Z,16.32
2018-08-24T18:35:55.839Z,16.30
2018-08-24T18:38:24.588Z,16.25
2018-08-24T18:40:53.243Z,16.20
2018-08-24T18:43:21.906Z,16.13
2018-08-24T18:45:50.560Z,16.03
2018-08-24T18:48:19.215Z,15.97
2018-08-24T18:50:47.924Z,15.92
2018-08-24T18:53:16.547Z,15.89
2018-08-24T18:55:45.172Z,15.87
2018-08-24T18:58:13.831Z,15.87
2018-08-24T19:00:42.460Z,15.89
2018-08-24T19:03:11.118Z,15.89
2018-08-24T19:05:39.746Z,15.84
2018-08-24T19:08:12.816Z,15.75
2018-08-24T19:10:46.770Z,15.64
2018-08-24T19:13:16.673Z,15.52
2018-08-24T19:15:46.471Z,15.44
2018-08-24T19:18:20.452Z,15.40
2018-08-24T19:20:54.350Z,15.39
2018-08-24T19:23:23.015Z,15.40
2018-08-24T19:25:51.675Z,15.42
2018-08-24T19:28:25.491Z,15.44
2018-08-24T19:30:54.124Z,15.44
2018-08-24T19:33:22.789Z,15.48
2018-08-24T19:35:51.430Z,15.52
2018-08-24T19:38:20.067Z,15.55
2018-08-24T19:40:53.868Z,15.58
2018-08-24T19:43:22.522Z,15.59
2018-08-24T19:45:51.145Z,15.57
2018-08-24T19:48:25.130Z,15.52
2018-08-24T19:50:53.735Z,15.52
2018-08-24T19:53:22.385Z,15.58
2018-08-24T19:55:51.017Z,15.64
2018-08-24T19:58:24.955Z,15.69
2018-08-24T20:00:53.601Z,15.67
2018-08-24T20:03:22.273Z,15.74
2018-08-24T20:05:56.168Z,15.78
2018-08-24T20:08:29.934Z,15.82
2018-08-24T20:10:58.544Z,15.81
2018-08-24T20:13:27.252Z,15.81
2018-08-24T20:16:01.016Z,15.78
2018-08-24T20:18:29.679Z,15.76
2018-08-24T20:20:58.367Z,15.72
2018-08-24T20:23:27.048Z,15.71
2018-08-24T20:25:55.723Z,15.69
2018-08-24T20:28:24.371Z,15.66
2018-08-24T20:30:53.034Z,15.65
2018-08-24T20:33:21.852Z,15.59
2018-08-24T20:35:50.507Z,15.56
2018-08-24T20:38:19.139Z,15.53
2018-08-24T20:40:47.783Z,15.47
2018-08-24T20:43:16.423Z,15.42
2018-08-24T20:45:45.084Z,15.37
2018-08-24T20:48:13.729Z,15.36
2018-08-24T20:50:42.460Z,15.36
2018-08-24T20:53:11.112Z,15.35
2018-08-24T20:55:39.833Z,15.35
2018-08-24T20:58:08.472Z,15.32
2018-08-24T21:00:37.139Z,15.33
2018-08-24T21:03:05.934Z,15.33
2018-08-24T21:05:34.625Z,15.32
2018-08-24T21:08:03.250Z,15.33
2018-08-24T21:10:31.906Z,15.33
2018-08-24T21:13:00.542Z,15.33
2018-08-24T21:15:29.190Z,15.31
2018-08-24T21:17:57.872Z,15.28
2018-08-24T21:20:26.566Z,15.24
2018-08-24T21:22:55.225Z,15.18
2018-08-24T21:25:23.888Z,15.14
2018-08-24T21:27:52.761Z,15.13
2018-08-24T21:30:21.566Z,15.12
2018-08-24T21:32:50.177Z,15.09
2018-08-24T21:35:18.855Z,15.06
2018-08-24T21:37:47.490Z,14.97
2018-08-24T21:40:16.155Z,14.89
2018-08-24T21:42:44.788Z,14.84
2018-08-24T21:45:13.449Z,14.84
2018-08-24T21:47:42.091Z,14.82
2018-08-24T21:50:10.757Z,14.75
2018-08-24T21:52:39.408Z,14.65
2018-08-24T21:55:08.099Z,14.58
2018-08-24T21:57:36.830Z,14.53
2018-08-24T22:00:08.536Z,14.48
2018-08-24T22:02:37.178Z,14.43
2018-08-24T22:05:05.903Z,14.37
2018-08-24T22:07:34.536Z,14.29
2018-08-24T22:10:03.190Z,14.28
2018-08-24T22:12:31.849Z,14.25
2018-08-24T22:15:00.554Z,14.22
2018-08-24T22:17:29.191Z,14.21
2018-08-24T22:19:57.827Z,14.19
2018-08-24T22:22:26.513Z,14.17
2018-08-24T22:24:55.228Z,14.14
2018-08-24T22:27:23.944Z,14.07
2018-08-24T22:29:52.584Z,13.97
2018-08-24T22:32:21.288Z,13.84
2018-08-24T22:34:49.924Z,13.74
2018-08-24T22:37:18.591Z,13.71
2018-08-24T22:39:47.277Z,13.68
2018-08-24T22:42:15.982Z,13.66
2018-08-24T22:44:44.625Z,13.65
2018-08-24T22:47:13.310Z,13.62
2018-08-24T22:49:41.939Z,13.58
2018-08-24T22:52:10.591Z,13.56
2018-08-24T22:54:39.224Z,13.50
2018-08-24T22:57:07.950Z,13.35
2018-08-24T22:59:36.653Z,13.21
2018-08-24T23:02:05.329Z,13.09
2018-08-24T23:04:33.973Z,13.08
2018-08-24T23:07:02.637Z,13.06
2018-08-24T23:09:31.284Z,13.02
2018-08-24T23:11:59.950Z,13.01
2018-08-24T23:14:28.588Z,12.87
2018-08-24T23:16:57.273Z,12.72
2018-08-24T23:19:25.975Z,12.63
2018-08-24T23:21:54.628Z,12.58
2018-08-24T23:24:23.242Z,12.41
2018-08-24T23:26:51.880Z,12.23
2018-08-24T23:29:20.503Z,12.03
2018-08-24T23:31:49.155Z,11.91
2018-08-24T23:34:17.795Z,11.80
2018-08-24T23:36:46.424Z,11.71
2018-08-24T23:39:15.070Z,11.72
2018-08-24T23:41:43.738Z,11.73
2018-08-24T23:44:12.433Z,11.74
2018-08-24T23:46:41.099Z,11.74
2018-08-24T23:49:09.735Z,11.70
2018-08-24T23:51:38.362Z,11.55
2018-08-24T23:54:07.044Z,11.42
2018-08-24T23:56:35.677Z,11.35
2018-08-24T23:59:04.342Z,11.32
